Terminal Aerodrome Forecast
Issued by NWS

Home | Current Version | Previous Version | Text Only | Print | Product List | Glossary On
Versions: 1 2 3 4 5 6 7 8 9 10 11 12 13 14 15 16 17 18 19 20 21 22 23 24 25 26
000
FTUS46 KLOX 020500
TAFLGB
TAF
KLGB 020520Z 0206/0306 VRB03KT P6SM SKC
     FM021000 VRB03KT 6SM BR BKN012
     FM021600 17007KT P6SM FEW020
     FM022000 20010KT P6SM SKC
     FM030000 29010KT P6SM SKC
     FM030400 VRB03KT P6SM SKC=

USA.gov is the U.S. government's official web portal to all federal, state and local government web resources and services.